Time;durP1;ratioP1;P1;durP2;ratioP2;P2;SDS_P1;SDS_P2;PMS_P1;PMS_P2;Temp;Humidity;BMP_temperature;BMP_pressure;BME280_temperature;BME280_humidity;BME280_pressure;Samples;Min_cycle;Max_cycle;Signal;HPM_P1;HPM_P2
2023/05/25 00:00:39;;;;;;;13.13;6.05;;;;;;;;;;5050298;28;20562;-69
2023/05/25 00:03:08;;;;;;;7.32;4.15;;;;;;;;;;5049331;28;20250;-70
2023/05/25 00:05:37;;;;;;;11.77;4.53;;;;;;;;;;5051003;28;20209;-69
2023/05/25 00:08:05;;;;;;;6.78;4.18;;;;;;;;;;5048982;28;20239;-69
2023/05/25 00:10:34;;;;;;;10.65;4.55;;;;;;;;;;5050874;28;20735;-69
2023/05/25 00:13:03;;;;;;;8.77;4.78;;;;;;;;;;5050520;28;20205;-69
2023/05/25 00:15:31;;;;;;;9.80;4.22;;;;;;;;;;5049893;28;20208;-69
2023/05/25 00:17:59;;;;;;;12.73;5.47;;;;;;;;;;5050045;28;20636;-70
2023/05/25 00:20:27;;;;;;;7.75;4.53;;;;;;;;;;5050596;28;20773;-69
2023/05/25 00:22:56;;;;;;;11.30;4.15;;;;;;;;;;5050265;28;20683;-70
2023/05/25 00:25:24;;;;;;;8.98;5.10;;;;;;;;;;5050767;28;20211;-69
2023/05/25 00:27:54;;;;;;;10.05;4.50;;;;;;;;;;5051634;28;20223;-70
2023/05/25 00:30:22;;;;;;;10.85;4.20;;;;;;;;;;5074353;28;20214;-70
2023/05/25 00:32:52;;;;;;;12.15;4.40;;;;;;;;;;5072445;28;20210;-70
2023/05/25 00:35:21;;;;;;;14.35;5.45;;;;;;;;;;5074344;28;20189;-70
2023/05/25 00:37:50;;;;;;;10.60;4.85;;;;;;;;;;5060894;28;20222;-69
2023/05/25 00:40:20;;;;;;;6.25;4.28;;;;;;;;;;5053949;28;20632;-70
2023/05/25 00:42:48;;;;;;;13.00;5.75;;;;;;;;;;5053315;28;20205;-69
2023/05/25 00:45:18;;;;;;;6.63;3.85;;;;;;;;;;5054083;28;20207;-70
2023/05/25 00:47:47;;;;;;;9.88;4.90;;;;;;;;;;5052977;28;20261;-69
2023/05/25 00:50:16;;;;;;;9.35;5.20;;;;;;;;;;5053987;28;20214;-70
2023/05/25 00:52:44;;;;;;;8.93;4.68;;;;;;;;;;5052008;28;20208;-69
2023/05/25 00:55:12;;;;;;;7.95;4.78;;;;;;;;;;5053344;28;20197;-69
2023/05/25 00:57:44;;;;;;;9.40;5.25;;;;;;;;;;5053523;28;20201;-70
2023/05/25 01:00:14;;;;;;;9.80;4.63;;;;;;;;;;5053166;28;20192;-69
2023/05/25 01:02:45;;;;;;;6.18;4.22;;;;;;;;;;5052397;28;20893;-69
2023/05/25 01:05:17;;;;;;;11.05;4.50;;;;;;;;;;5052651;28;20574;-69
2023/05/25 01:07:45;;;;;;;12.10;4.63;;;;;;;;;;5053070;28;20247;-70
2023/05/25 01:10:15;;;;;;;13.70;4.45;;;;;;;;;;5051584;28;20737;-69
2023/05/25 01:12:46;;;;;;;9.52;4.85;;;;;;;;;;5053256;28;20657;-69
2023/05/25 01:15:14;;;;;;;9.15;5.20;;;;;;;;;;5053284;28;20203;-69
2023/05/25 01:17:43;;;;;;;9.77;5.53;;;;;;;;;;5053552;28;20560;-69
2023/05/25 01:20:13;;;;;;;10.07;5.30;;;;;;;;;;5052787;28;20208;-69
2023/05/25 01:22:44;;;;;;;11.60;4.22;;;;;;;;;;5053102;28;20583;-69
2023/05/25 01:25:14;;;;;;;9.60;4.85;;;;;;;;;;5052740;28;20658;-69
2023/05/25 01:27:45;;;;;;;8.45;5.25;;;;;;;;;;5053651;28;20768;-69
2023/05/25 01:30:15;;;;;;;15.77;5.25;;;;;;;;;;5051809;28;20185;-69
2023/05/25 01:32:44;;;;;;;7.15;3.65;;;;;;;;;;5053061;28;20216;-69
2023/05/25 01:35:13;;;;;;;6.03;4.03;;;;;;;;;;5052450;28;20773;-69
2023/05/25 01:37:47;;;;;;;13.40;5.25;;;;;;;;;;5061194;28;20218;-69
2023/05/25 01:40:16;;;;;;;10.90;6.35;;;;;;;;;;5072089;28;20214;-69
2023/05/25 01:42:44;;;;;;;9.75;4.65;;;;;;;;;;5072763;28;20681;-70
2023/05/25 01:45:14;;;;;;;13.35;5.05;;;;;;;;;;5070984;28;20387;-70
2023/05/25 01:47:45;;;;;;;4.88;4.38;;;;;;;;;;5072654;28;20208;-69
2023/05/25 01:50:19;;;;;;;5.85;3.97;;;;;;;;;;5070283;28;20180;-69
2023/05/25 01:52:51;;;;;;;9.73;4.38;;;;;;;;;;5071391;28;20217;-69
2023/05/25 01:55:21;;;;;;;10.65;4.40;;;;;;;;;;5071690;28;20631;-69
2023/05/25 01:57:51;;;;;;;13.18;5.00;;;;;;;;;;5071619;28;20557;-69
2023/05/25 02:00:21;;;;;;;11.45;5.10;;;;;;;;;;5070540;28;20219;-69
2023/05/25 02:02:51;;;;;;;9.23;4.95;;;;;;;;;;5055180;28;20412;-69
2023/05/25 02:05:20;;;;;;;8.90;4.25;;;;;;;;;;5069687;28;20208;-69
2023/05/25 02:07:50;;;;;;;7.85;4.30;;;;;;;;;;5072004;28;20231;-70
2023/05/25 02:10:18;;;;;;;33.97;5.00;;;;;;;;;;5069820;28;20211;-69
2023/05/25 02:12:46;;;;;;;15.30;4.55;;;;;;;;;;5072205;28;20203;-69
2023/05/25 02:15:16;;;;;;;11.48;4.65;;;;;;;;;;5063382;28;20598;-69
2023/05/25 02:17:44;;;;;;;16.38;4.72;;;;;;;;;;5050756;28;20584;-69
2023/05/25 02:20:13;;;;;;;6.85;4.90;;;;;;;;;;5063890;28;20538;-67
2023/05/25 02:22:41;;;;;;;9.30;4.20;;;;;;;;;;5070637;28;20203;-67
2023/05/25 02:25:11;;;;;;;6.03;4.65;;;;;;;;;;5071705;28;20210;-67
2023/05/25 02:27:39;;;;;;;10.65;4.55;;;;;;;;;;5070709;28;20572;-68
2023/05/25 02:30:09;;;;;;;7.53;5.05;;;;;;;;;;5070665;28;20226;-67
2023/05/25 02:32:37;;;;;;;10.00;5.10;;;;;;;;;;5071282;28;20207;-67
2023/05/25 02:35:06;;;;;;;8.20;4.35;;;;;;;;;;5071184;28;20204;-67
2023/05/25 02:37:35;;;;;;;15.32;5.35;;;;;;;;;;5071266;28;20943;-67
2023/05/25 02:40:04;;;;;;;11.35;4.13;;;;;;;;;;5055982;28;20269;-67
2023/05/25 02:42:34;;;;;;;8.52;3.90;;;;;;;;;;5050286;28;20211;-67
2023/05/25 02:45:02;;;;;;;8.63;4.47;;;;;;;;;;5051495;28;20559;-68
2023/05/25 02:47:32;;;;;;;5.63;4.20;;;;;;;;;;5050511;28;20223;-67
2023/05/25 02:50:00;;;;;;;8.23;4.47;;;;;;;;;;5049634;28;20207;-67
2023/05/25 02:52:30;;;;;;;10.38;4.70;;;;;;;;;;5050060;28;20208;-67
2023/05/25 02:54:59;;;;;;;11.07;5.57;;;;;;;;;;5050399;28;20534;-67
2023/05/25 02:57:37;;;;;;;12.88;4.07;;;;;;;;;;5050490;28;20214;-68
2023/05/25 03:00:10;;;;;;;5.05;4.65;;;;;;;;;;5056872;28;20220;-67
2023/05/25 03:02:39;;;;;;;5.70;4.78;;;;;;;;;;5062329;28;20258;-67
2023/05/25 03:05:07;;;;;;;5.65;4.47;;;;;;;;;;5068698;28;20199;-68
2023/05/25 03:07:36;;;;;;;5.00;4.47;;;;;;;;;;5069377;28;20253;-67
2023/05/25 03:10:05;;;;;;;6.55;4.30;;;;;;;;;;5069194;28;20224;-67
2023/05/25 03:12:36;;;;;;;7.72;4.25;;;;;;;;;;5071221;28;20720;-68
2023/05/25 03:15:05;;;;;;;9.48;4.63;;;;;;;;;;5069386;28;20208;-68
2023/05/25 03:17:34;;;;;;;13.73;4.45;;;;;;;;;;5069772;28;20207;-68
2023/05/25 03:20:04;;;;;;;8.05;4.90;;;;;;;;;;5069633;28;20608;-68
2023/05/25 03:22:33;;;;;;;5.90;4.07;;;;;;;;;;5069248;28;20669;-68
2023/05/25 03:25:01;;;;;;;8.73;4.38;;;;;;;;;;5070530;28;20199;-67
2023/05/25 03:27:30;;;;;;;8.18;4.30;;;;;;;;;;5068840;28;20207;-68
2023/05/25 03:30:00;;;;;;;5.85;3.70;;;;;;;;;;5052871;28;20195;-68
2023/05/25 03:32:28;;;;;;;8.25;4.40;;;;;;;;;;5069023;28;20200;-68
2023/05/25 03:35:02;;;;;;;9.05;4.90;;;;;;;;;;5069847;28;20665;-68
2023/05/25 03:37:30;;;;;;;6.05;4.10;;;;;;;;;;5068646;28;20596;-67
2023/05/25 03:39:59;;;;;;;5.95;4.20;;;;;;;;;;5070965;28;20219;-68
2023/05/25 03:42:27;;;;;;;6.50;4.20;;;;;;;;;;5070031;28;20204;-68
2023/05/25 03:44:55;;;;;;;12.98;4.75;;;;;;;;;;5070952;28;20200;-69
2023/05/25 03:47:25;;;;;;;5.93;4.20;;;;;;;;;;5069100;28;20203;-69
2023/05/25 03:49:54;;;;;;;8.43;4.45;;;;;;;;;;5069219;28;20317;-68
2023/05/25 03:52:22;;;;;;;9.45;5.03;;;;;;;;;;5058696;28;20208;-68
2023/05/25 03:54:50;;;;;;;8.85;4.90;;;;;;;;;;5050745;28;20213;-68
2023/05/25 03:57:18;;;;;;;9.02;4.90;;;;;;;;;;5066407;28;20218;-68
2023/05/25 03:59:46;;;;;;;12.30;5.32;;;;;;;;;;5067858;28;20220;-68
2023/05/25 04:02:15;;;;;;;10.98;4.85;;;;;;;;;;5051761;28;20322;-68
2023/05/25 04:04:44;;;;;;;6.68;4.70;;;;;;;;;;5053531;28;20265;-68
2023/05/25 04:07:13;;;;;;;10.00;4.78;;;;;;;;;;5053502;28;20244;-67
2023/05/25 04:09:41;;;;;;;5.78;4.55;;;;;;;;;;5054303;28;20220;-68
2023/05/25 04:12:09;;;;;;;13.45;5.70;;;;;;;;;;5054064;28;20205;-68
2023/05/25 04:14:38;;;;;;;15.27;6.15;;;;;;;;;;5054314;28;20266;-68
2023/05/25 04:17:06;;;;;;;7.90;5.15;;;;;;;;;;5053866;28;20208;-66
2023/05/25 04:19:34;;;;;;;5.75;4.60;;;;;;;;;;5053621;28;20581;-68
2023/05/25 04:22:04;;;;;;;14.43;4.90;;;;;;;;;;5054022;28;20208;-70
2023/05/25 04:24:33;;;;;;;7.68;5.10;;;;;;;;;;5053124;28;20209;-68
2023/05/25 04:27:02;;;;;;;12.90;5.65;;;;;;;;;;5053311;28;20200;-68
2023/05/25 04:29:30;;;;;;;15.43;5.80;;;;;;;;;;5052845;28;20253;-68
2023/05/25 04:32:28;;;;;;;9.55;4.85;;;;;;;;;;5034018;28;20209;-68
2023/05/25 04:35:19;;;;;;;31.65;7.00;;;;;;;;;;5053720;28;20648;-68
2023/05/25 04:37:50;;;;;;;15.98;5.13;;;;;;;;;;5052637;28;20894;-68
2023/05/25 04:40:20;;;;;;;8.77;4.78;;;;;;;;;;5043551;28;20228;-68
2023/05/25 04:42:49;;;;;;;12.30;5.18;;;;;;;;;;5053001;28;20223;-68
2023/05/25 04:45:20;;;;;;;7.63;4.78;;;;;;;;;;5052182;28;20208;-68
2023/05/25 04:47:48;;;;;;;15.50;5.32;;;;;;;;;;5052914;28;20193;-68
2023/05/25 04:50:18;;;;;;;10.90;5.20;;;;;;;;;;5052078;28;20709;-68
2023/05/25 04:52:46;;;;;;;8.55;4.55;;;;;;;;;;5052343;28;20213;-68
2023/05/25 04:55:16;;;;;;;10.13;4.35;;;;;;;;;;5052981;28;20205;-68
2023/05/25 04:57:45;;;;;;;8.88;4.72;;;;;;;;;;5052163;28;20195;-66
2023/05/25 05:00:14;;;;;;;8.52;4.90;;;;;;;;;;5053197;28;20250;-68
2023/05/25 05:02:43;;;;;;;12.52;5.10;;;;;;;;;;5059041;28;20205;-68
2023/05/25 05:05:12;;;;;;;9.45;5.07;;;;;;;;;;5052113;28;20208;-68
2023/05/25 05:07:40;;;;;;;12.38;5.43;;;;;;;;;;5051491;28;20790;-68
2023/05/25 05:10:09;;;;;;;7.53;5.00;;;;;;;;;;5051368;28;20224;-69
2023/05/25 05:12:41;;;;;;;10.55;5.05;;;;;;;;;;5051133;28;20206;-69
2023/05/25 05:15:09;;;;;;;8.13;4.40;;;;;;;;;;5053328;28;20647;-68
2023/05/25 05:17:38;;;;;;;11.07;5.47;;;;;;;;;;5072140;28;20685;-68
2023/05/25 05:20:07;;;;;;;6.82;5.60;;;;;;;;;;5061782;28;20683;-67
2023/05/25 05:22:35;;;;;;;8.05;4.93;;;;;;;;;;5052259;28;20728;-69
2023/05/25 05:25:04;;;;;;;8.50;4.63;;;;;;;;;;5050675;28;20238;-68
2023/05/25 05:27:32;;;;;;;5.32;4.32;;;;;;;;;;5052037;28;20689;-68
2023/05/25 05:30:10;;;;;;;9.43;5.07;;;;;;;;;;5050187;28;20663;-68
2023/05/25 05:32:39;;;;;;;8.90;4.78;;;;;;;;;;5051982;28;20651;-68
2023/05/25 05:35:09;;;;;;;6.40;4.82;;;;;;;;;;5050936;28;20204;-68
2023/05/25 05:37:46;;;;;;;7.30;4.60;;;;;;;;;;5051843;28;20188;-69
2023/05/25 05:40:15;;;;;;;9.45;4.55;;;;;;;;;;5050855;28;20216;-69
2023/05/25 05:42:44;;;;;;;10.27;4.65;;;;;;;;;;5052883;28;20208;-68
2023/05/25 05:45:14;;;;;;;10.00;4.47;;;;;;;;;;5049782;28;20209;-68
2023/05/25 05:47:42;;;;;;;8.73;4.43;;;;;;;;;;5052861;28;20211;-68
2023/05/25 05:50:10;;;;;;;8.27;4.82;;;;;;;;;;5049128;28;20689;-68
2023/05/25 05:52:40;;;;;;;14.25;5.57;;;;;;;;;;5050939;28;20209;-68
2023/05/25 05:55:08;;;;;;;9.38;4.60;;;;;;;;;;5049789;28;20418;-68
2023/05/25 05:57:39;;;;;;;6.53;4.82;;;;;;;;;;5049942;28;20192;-68
2023/05/25 06:00:08;;;;;;;6.40;4.00;;;;;;;;;;5047434;28;20197;-68
2023/05/25 06:02:45;;;;;;;10.82;4.65;;;;;;;;;;5049138;28;20184;-68
2023/05/25 06:05:20;;;;;;;11.82;5.47;;;;;;;;;;5047421;28;20539;-68
2023/05/25 06:07:48;;;;;;;10.98;4.80;;;;;;;;;;5048102;28;20236;-68
2023/05/25 06:10:17;;;;;;;10.90;5.13;;;;;;;;;;5051495;28;20233;-68
2023/05/25 06:12:46;;;;;;;10.02;5.00;;;;;;;;;;5060941;28;20210;-66
2023/05/25 06:15:14;;;;;;;7.30;4.07;;;;;;;;;;5059101;28;20210;-68
2023/05/25 06:17:42;;;;;;;9.98;5.10;;;;;;;;;;5060466;28;20218;-69
2023/05/25 06:20:14;;;;;;;16.02;5.40;;;;;;;;;;5057193;28;20264;-68
2023/05/25 06:22:43;;;;;;;8.18;4.47;;;;;;;;;;5059858;28;20249;-69
2023/05/25 06:25:12;;;;;;;8.65;5.55;;;;;;;;;;5057548;28;20200;-68
2023/05/25 06:27:40;;;;;;;11.95;4.70;;;;;;;;;;5055333;28;20200;-68
2023/05/25 06:30:09;;;;;;;12.07;5.47;;;;;;;;;;5049837;28;20580;-69
2023/05/25 06:32:38;;;;;;;11.13;5.25;;;;;;;;;;5058030;28;21177;-67
2023/05/25 06:35:08;;;;;;;11.57;4.90;;;;;;;;;;5051569;28;20663;-67
2023/05/25 06:37:38;;;;;;;10.85;4.88;;;;;;;;;;5053196;28;20230;-68
2023/05/25 06:40:09;;;;;;;20.10;6.03;;;;;;;;;;5064239;28;20203;-66
2023/05/25 06:42:37;;;;;;;14.70;6.03;;;;;;;;;;5070148;28;20219;-65
2023/05/25 06:45:06;;;;;;;5.97;4.60;;;;;;;;;;5069855;28;20268;-65
2023/05/25 06:47:34;;;;;;;13.60;5.97;;;;;;;;;;5072807;28;20570;-65
2023/05/25 06:50:03;;;;;;;6.93;5.13;;;;;;;;;;5055003;28;20638;-65
2023/05/25 06:52:31;;;;;;;10.40;5.60;;;;;;;;;;5072456;28;20694;-65
2023/05/25 06:55:02;;;;;;;10.50;5.10;;;;;;;;;;5071768;28;21176;-65
2023/05/25 06:57:30;;;;;;;5.97;4.70;;;;;;;;;;5070843;28;20573;-66
2023/05/25 06:59:59;;;;;;;8.90;4.97;;;;;;;;;;5071014;28;20967;-68
2023/05/25 07:02:27;;;;;;;13.20;6.23;;;;;;;;;;5070174;28;20643;-67
2023/05/25 07:04:55;;;;;;;5.37;4.87;;;;;;;;;;5055187;28;20764;-67
2023/05/25 07:07:23;;;;;;;10.83;5.07;;;;;;;;;;5050730;28;20643;-67
2023/05/25 07:09:52;;;;;;;8.30;5.43;;;;;;;;;;5070108;28;20673;-68
2023/05/25 07:12:21;;;;;;;5.27;4.77;;;;;;;;;;5069210;28;20622;-68
2023/05/25 07:14:49;;;;;;;11.17;5.67;;;;;;;;;;5070414;28;20663;-66
2023/05/25 07:17:18;;;;;;;9.10;6.20;;;;;;;;;;5071372;28;20652;-67
2023/05/25 07:19:47;;;;;;;13.07;5.87;;;;;;;;;;5071250;28;20591;-66
2023/05/25 07:22:17;;;;;;;7.97;6.00;;;;;;;;;;5070957;28;20623;-67
2023/05/25 07:24:46;;;;;;;15.43;6.20;;;;;;;;;;5071990;28;20611;-67
2023/05/25 07:27:15;;;;;;;13.10;6.70;;;;;;;;;;5071553;28;20593;-68
2023/05/25 07:29:44;;;;;;;9.60;7.20;;;;;;;;;;5070721;28;20617;-67
2023/05/25 07:32:13;;;;;;;12.87;6.70;;;;;;;;;;5071778;28;20600;-66
2023/05/25 07:34:41;;;;;;;8.30;5.87;;;;;;;;;;5071241;28;20606;-66
2023/05/25 07:37:09;;;;;;;9.83;6.40;;;;;;;;;;5072361;28;20995;-66
2023/05/25 07:39:39;;;;;;;10.27;5.50;;;;;;;;;;5074384;28;21228;-67
2023/05/25 07:42:07;;;;;;;9.93;6.73;;;;;;;;;;5074457;28;20628;-66
2023/05/25 07:44:35;;;;;;;8.13;6.40;;;;;;;;;;5075602;28;20581;-66
2023/05/25 07:47:05;;;;;;;12.47;6.60;;;;;;;;;;5074507;28;21023;-67
2023/05/25 07:49:34;;;;;;;12.87;6.63;;;;;;;;;;5065874;28;20653;-67
2023/05/25 07:52:04;;;;;;;8.50;6.30;;;;;;;;;;5054280;28;20592;-68
2023/05/25 07:54:32;;;;;;;11.13;7.70;;;;;;;;;;5069072;28;20628;-66
2023/05/25 07:57:01;;;;;;;10.17;6.73;;;;;;;;;;5074781;28;20936;-66
2023/05/25 07:59:30;;;;;;;10.37;6.63;;;;;;;;;;5054342;28;20599;-66
2023/05/25 08:01:58;;;;;;;8.27;6.20;;;;;;;;;;5053756;28;21211;-66
2023/05/25 08:04:27;;;;;;;11.80;7.33;;;;;;;;;;5053749;28;20673;-66
2023/05/25 08:06:56;;;;;;;11.13;6.40;;;;;;;;;;5054075;28;20682;-66
2023/05/25 08:09:24;;;;;;;12.50;7.03;;;;;;;;;;5057816;28;20790;-65
2023/05/25 08:11:52;;;;;;;10.37;7.20;;;;;;;;;;5072139;28;20589;-65
2023/05/25 08:14:22;;;;;;;12.60;7.60;;;;;;;;;;5075262;28;20619;-65
2023/05/25 08:16:51;;;;;;;11.80;7.00;;;;;;;;;;5074408;28;20577;-68
2023/05/25 08:19:19;;;;;;;13.00;6.27;;;;;;;;;;5074429;28;20599;-65
2023/05/25 08:21:50;;;;;;;10.30;7.70;;;;;;;;;;5073627;28;20636;-65
2023/05/25 08:24:18;;;;;;;9.77;8.10;;;;;;;;;;5074464;28;20808;-66
2023/05/25 08:26:47;;;;;;;12.07;7.20;;;;;;;;;;5073524;28;20863;-66
2023/05/25 08:29:15;;;;;;;10.43;7.40;;;;;;;;;;5073736;28;20609;-67
2023/05/25 08:31:48;;;;;;;9.50;7.83;;;;;;;;;;5062641;28;20639;-67
2023/05/25 08:34:16;;;;;;;7.63;6.50;;;;;;;;;;5053940;28;21172;-67
2023/05/25 08:36:44;;;;;;;10.77;8.17;;;;;;;;;;5068252;28;20674;-67
2023/05/25 08:39:14;;;;;;;16.40;6.90;;;;;;;;;;5072703;28;20587;-67
2023/05/25 08:41:43;;;;;;;12.23;7.90;;;;;;;;;;5058808;28;20644;-66
2023/05/25 08:44:13;;;;;;;16.20;7.77;;;;;;;;;;5074641;28;20577;-66
2023/05/25 08:46:41;;;;;;;15.33;7.80;;;;;;;;;;5073051;28;20624;-66
2023/05/25 08:49:10;;;;;;;8.27;7.07;;;;;;;;;;5074430;28;20609;-66
2023/05/25 08:51:39;;;;;;;12.13;7.40;;;;;;;;;;5068973;28;20633;-65
2023/05/25 08:54:09;;;;;;;11.50;8.00;;;;;;;;;;5074993;28;20614;-65
2023/05/25 08:56:42;;;;;;;11.17;7.63;;;;;;;;;;5059658;28;20586;-65
2023/05/25 08:59:16;;;;;;;11.37;7.27;;;;;;;;;;5055417;28;21186;-66
2023/05/25 09:01:46;;;;;;;11.10;7.73;;;;;;;;;;5073505;28;20643;-66
2023/05/25 09:04:16;;;;;;;10.20;7.60;;;;;;;;;;5072904;28;20598;-66
2023/05/25 09:06:44;;;;;;;10.20;8.00;;;;;;;;;;5072766;28;20669;-67
2023/05/25 09:09:13;;;;;;;13.80;8.27;;;;;;;;;;5073014;28;20619;-66
2023/05/25 09:11:43;;;;;;;9.17;7.60;;;;;;;;;;5055063;28;20607;-66
2023/05/25 09:14:12;;;;;;;8.90;8.00;;;;;;;;;;5064338;28;20647;-66
2023/05/25 09:16:40;;;;;;;10.13;8.50;;;;;;;;;;5073310;28;20593;-67
2023/05/25 09:19:09;;;;;;;12.00;10.00;;;;;;;;;;5073042;28;20609;-66
2023/05/25 09:21:37;;;;;;;12.83;9.40;;;;;;;;;;5073606;28;21009;-66
2023/05/25 09:24:05;;;;;;;15.83;8.47;;;;;;;;;;5072621;28;20633;-67
2023/05/25 09:26:35;;;;;;;9.10;7.97;;;;;;;;;;5073000;28;20618;-67
2023/05/25 09:29:04;;;;;;;10.13;9.20;;;;;;;;;;5072214;28;20595;-67
2023/05/25 09:31:33;;;;;;;11.63;8.30;;;;;;;;;;5072761;28;20654;-66
2023/05/25 09:34:01;;;;;;;10.87;8.20;;;;;;;;;;5072939;28;20659;-66
2023/05/25 09:36:29;;;;;;;14.47;9.03;;;;;;;;;;5074074;28;20610;-67
2023/05/25 09:38:57;;;;;;;13.03;9.90;;;;;;;;;;5058383;28;20657;-67
2023/05/25 09:41:28;;;;;;;8.83;8.00;;;;;;;;;;5052581;28;20589;-67
2023/05/25 09:43:57;;;;;;;10.93;8.20;;;;;;;;;;5060587;28;20649;-65
2023/05/25 09:46:28;;;;;;;11.80;8.90;;;;;;;;;;5064112;28;20967;-66
2023/05/25 09:48:56;;;;;;;10.23;8.70;;;;;;;;;;5066522;28;20581;-66
2023/05/25 09:51:24;;;;;;;15.23;9.50;;;;;;;;;;5072602;28;21175;-66
2023/05/25 09:53:52;;;;;;;14.20;9.00;;;;;;;;;;5071650;28;20624;-66
2023/05/25 09:56:22;;;;;;;11.30;9.10;;;;;;;;;;5072387;28;20598;-66
2023/05/25 09:58:52;;;;;;;9.67;8.63;;;;;;;;;;5061324;28;20649;-66
2023/05/25 10:01:20;;;;;;;10.50;8.60;;;;;;;;;;5054251;28;20991;-66
2023/05/25 10:03:50;;;;;;;12.33;8.63;;;;;;;;;;5051169;28;20663;-65
2023/05/25 10:06:18;;;;;;;9.10;8.40;;;;;;;;;;5051026;28;20650;-66
2023/05/25 10:08:48;;;;;;;8.53;7.83;;;;;;;;;;5055798;28;20633;-66
2023/05/25 10:11:17;;;;;;;16.23;8.90;;;;;;;;;;5056035;28;20820;-66
2023/05/25 10:13:46;;;;;;;9.70;8.70;;;;;;;;;;5057305;28;20870;-66
2023/05/25 10:16:16;;;;;;;11.77;9.57;;;;;;;;;;5062853;28;20970;-66
2023/05/25 10:18:48;;;;;;;11.10;8.30;;;;;;;;;;5063789;28;20602;-66
2023/05/25 10:21:18;;;;;;;10.03;9.13;;;;;;;;;;5063057;28;20598;-66
2023/05/25 10:23:48;;;;;;;9.40;8.60;;;;;;;;;;5064922;28;21026;-66
2023/05/25 10:26:18;;;;;;;12.30;8.60;;;;;;;;;;5062934;28;20615;-66
2023/05/25 10:28:48;;;;;;;10.73;8.70;;;;;;;;;;5062799;28;21149;-66
2023/05/25 10:31:17;;;;;;;16.00;8.70;;;;;;;;;;5063805;28;20610;-66
2023/05/25 10:33:45;;;;;;;10.63;9.47;;;;;;;;;;5059786;28;21033;-66
2023/05/25 10:36:13;;;;;;;9.53;8.67;;;;;;;;;;5053516;28;20618;-66
2023/05/25 10:38:43;;;;;;;10.00;9.07;;;;;;;;;;5053507;28;20973;-66
2023/05/25 10:41:12;;;;;;;10.47;8.90;;;;;;;;;;5052377;28;20604;-66
2023/05/25 10:43:40;;;;;;;10.10;9.10;;;;;;;;;;5053598;28;20715;-66
2023/05/25 10:46:09;;;;;;;13.30;9.77;;;;;;;;;;5065798;28;20624;-66
2023/05/25 10:48:38;;;;;;;14.50;9.83;;;;;;;;;;5067256;28;20646;-66
2023/05/25 10:51:06;;;;;;;44.17;11.30;;;;;;;;;;5071927;28;20713;-66
2023/05/25 10:53:34;;;;;;;13.03;9.83;;;;;;;;;;5062404;28;20704;-66
2023/05/25 10:56:05;;;;;;;10.63;9.00;;;;;;;;;;5054250;28;20611;-66
2023/05/25 10:58:33;;;;;;;13.00;9.43;;;;;;;;;;5064985;28;20972;-66
2023/05/25 11:01:03;;;;;;;10.67;9.57;;;;;;;;;;5073068;28;20618;-66
2023/05/25 11:03:46;;;;;;;11.43;10.20;;;;;;;;;;5071560;28;20723;-66
2023/05/25 11:06:15;;;;;;;10.33;9.10;;;;;;;;;;5073118;28;20643;-67
2023/05/25 11:08:49;;;;;;;15.63;9.70;;;;;;;;;;5072775;28;20578;-66
2023/05/25 11:11:19;;;;;;;10.67;9.57;;;;;;;;;;5072974;28;20960;-66
2023/05/25 11:13:48;;;;;;;10.87;8.97;;;;;;;;;;5069482;28;20613;-66
2023/05/25 11:16:17;;;;;;;10.83;9.77;;;;;;;;;;5052926;28;21194;-66
2023/05/25 11:18:46;;;;;;;10.30;9.43;;;;;;;;;;5052965;28;21198;-66
2023/05/25 11:21:18;;;;;;;12.50;10.37;;;;;;;;;;5052598;28;20614;-66
2023/05/25 11:23:56;;;;;;;12.03;10.80;;;;;;;;;;5052460;28;20633;-66
2023/05/25 11:26:26;;;;;;;13.13;9.13;;;;;;;;;;5052336;28;20617;-66
2023/05/25 11:28:54;;;;;;;12.33;10.13;;;;;;;;;;5052070;28;20982;-66
2023/05/25 11:31:29;;;;;;;12.33;9.50;;;;;;;;;;5053090;28;21179;-66
2023/05/25 11:33:59;;;;;;;17.20;11.23;;;;;;;;;;5052461;28;20587;-66
2023/05/25 11:36:30;;;;;;;14.70;9.90;;;;;;;;;;5055236;28;21303;-67
2023/05/25 11:39:00;;;;;;;11.93;10.93;;;;;;;;;;5072545;28;20643;-66
2023/05/25 11:41:30;;;;;;;12.17;10.20;;;;;;;;;;5071540;28;20614;-66
2023/05/25 11:44:03;;;;;;;10.67;9.97;;;;;;;;;;5071379;28;20582;-66
2023/05/25 11:46:33;;;;;;;14.67;11.67;;;;;;;;;;5070546;28;20602;-66
2023/05/25 11:49:02;;;;;;;11.90;10.67;;;;;;;;;;5051026;28;20953;-66
2023/05/25 11:51:31;;;;;;;9.73;8.93;;;;;;;;;;5051494;28;20923;-66
2023/05/25 11:53:59;;;;;;;11.33;10.33;;;;;;;;;;5051986;28;20653;-66
2023/05/25 11:56:27;;;;;;;10.53;9.57;;;;;;;;;;5061336;28;20622;-66
2023/05/25 11:58:57;;;;;;;11.13;9.97;;;;;;;;;;5051294;28;20623;-67
2023/05/25 12:01:26;;;;;;;10.93;10.10;;;;;;;;;;5050454;28;20619;-66
2023/05/25 12:03:56;;;;;;;11.60;10.73;;;;;;;;;;5049902;28;20603;-66
2023/05/25 12:06:26;;;;;;;11.07;10.23;;;;;;;;;;5050899;28;20642;-66
2023/05/25 12:08:54;;;;;;;11.10;10.10;;;;;;;;;;5050962;28;20625;-66
2023/05/25 12:11:29;;;;;;;15.53;10.50;;;;;;;;;;5050003;28;21098;-66
2023/05/25 12:13:59;;;;;;;13.60;11.20;;;;;;;;;;5051676;28;20635;-66
2023/05/25 12:16:27;;;;;;;10.60;9.90;;;;;;;;;;5050058;28;20583;-66
2023/05/25 12:18:56;;;;;;;11.60;10.50;;;;;;;;;;5051567;28;20637;-66
2023/05/25 12:21:25;;;;;;;10.97;10.07;;;;;;;;;;5050514;28;20689;-66
2023/05/25 12:23:54;;;;;;;10.90;10.03;;;;;;;;;;5055493;28;20615;-66
2023/05/25 12:26:22;;;;;;;11.97;10.93;;;;;;;;;;5054586;28;20685;-66
2023/05/25 12:29:01;;;;;;;11.13;10.20;;;;;;;;;;5055298;28;20617;-66
2023/05/25 12:31:31;;;;;;;15.03;10.03;;;;;;;;;;5053937;28;20587;-66
2023/05/25 12:34:03;;;;;;;11.10;9.97;;;;;;;;;;5054257;28;20655;-66
2023/05/25 12:36:41;;;;;;;11.83;10.30;;;;;;;;;;5054572;28;20582;-66
2023/05/25 12:39:11;;;;;;;10.93;10.03;;;;;;;;;;5054966;28;20589;-66
2023/05/25 12:41:43;;;;;;;10.67;9.97;;;;;;;;;;5063921;28;20624;-65
2023/05/25 12:44:32;;;;;;;10.70;9.90;;;;;;;;;;5075038;28;21163;-66
2023/05/25 12:47:12;;;;;;;10.90;10.03;;;;;;;;;;5069656;28;20633;-66
2023/05/25 12:49:41;;;;;;;10.57;9.70;;;;;;;;;;5075041;28;20990;-66
2023/05/25 12:52:09;;;;;;;11.57;10.30;;;;;;;;;;5070067;28;20706;-66
2023/05/25 12:54:42;;;;;;;11.03;10.23;;;;;;;;;;5054244;28;20712;-66
2023/05/25 12:57:12;;;;;;;12.83;10.43;;;;;;;;;;5052624;28;20585;-66
2023/05/25 12:59:41;;;;;;;13.73;10.40;;;;;;;;;;5054434;28;20610;-66
2023/05/25 13:02:11;;;;;;;12.50;10.43;;;;;;;;;;5052879;28;20623;-66
2023/05/25 13:04:39;;;;;;;10.60;9.90;;;;;;;;;;5053545;28;20641;-66
2023/05/25 13:07:09;;;;;;;11.40;10.60;;;;;;;;;;5053655;28;20648;-66
2023/05/25 13:09:38;;;;;;;10.90;10.00;;;;;;;;;;5053685;28;20647;-67
2023/05/25 13:12:06;;;;;;;11.53;10.60;;;;;;;;;;5061060;28;20652;-66
2023/05/25 13:14:35;;;;;;;15.43;11.00;;;;;;;;;;5069122;28;21099;-65
2023/05/25 13:17:03;;;;;;;12.33;11.17;;;;;;;;;;5053401;28;20613;-65
2023/05/25 13:19:33;;;;;;;14.90;11.27;;;;;;;;;;5061053;28;20636;-67
2023/05/25 13:22:01;;;;;;;12.03;10.37;;;;;;;;;;5053763;28;20623;-67
2023/05/25 13:24:30;;;;;;;11.10;10.10;;;;;;;;;;5053014;28;21192;-67
2023/05/25 13:26:58;;;;;;;12.40;10.50;;;;;;;;;;5053183;28;20629;-67
2023/05/25 13:29:26;;;;;;;10.80;10.00;;;;;;;;;;5052855;28;21198;-67
2023/05/25 13:31:54;;;;;;;11.87;10.20;;;;;;;;;;5052860;28;20618;-66
2023/05/25 13:34:22;;;;;;;11.77;10.70;;;;;;;;;;5052522;28;20646;-65
2023/05/25 13:36:52;;;;;;;11.27;10.30;;;;;;;;;;5053038;28;20617;-66
2023/05/25 13:39:21;;;;;;;11.03;10.13;;;;;;;;;;5053104;28;20961;-66
2023/05/25 13:41:49;;;;;;;11.40;10.50;;;;;;;;;;5053497;28;20617;-65
2023/05/25 13:44:17;;;;;;;11.30;10.40;;;;;;;;;;5051649;28;20613;-66
2023/05/25 13:46:45;;;;;;;12.17;11.00;;;;;;;;;;5051814;28;20615;-66
2023/05/25 13:49:15;;;;;;;11.80;10.80;;;;;;;;;;5052314;28;21165;-66
2023/05/25 13:51:43;;;;;;;12.23;11.03;;;;;;;;;;5051950;28;21164;-66
2023/05/25 13:54:12;;;;;;;10.47;9.70;;;;;;;;;;5051550;28;20647;-66
2023/05/25 13:56:41;;;;;;;11.80;10.90;;;;;;;;;;5055902;28;20703;-66
2023/05/25 13:59:10;;;;;;;11.37;10.37;;;;;;;;;;5061461;28;20619;-66
2023/05/25 14:01:38;;;;;;;11.63;10.50;;;;;;;;;;5059364;28;21191;-66
2023/05/25 14:04:06;;;;;;;11.63;10.83;;;;;;;;;;5048804;28;20627;-65
2023/05/25 14:06:35;;;;;;;11.90;11.03;;;;;;;;;;5055454;28;20711;-66
2023/05/25 14:09:03;;;;;;;11.73;10.60;;;;;;;;;;5066492;28;20622;-66
2023/05/25 14:11:33;;;;;;;11.33;10.27;;;;;;;;;;5071414;28;20646;-66
2023/05/25 14:14:01;;;;;;;10.77;9.97;;;;;;;;;;5069809;28;20622;-65
2023/05/25 14:16:29;;;;;;;11.73;10.53;;;;;;;;;;5050593;28;21165;-65
2023/05/25 14:18:57;;;;;;;10.53;9.90;;;;;;;;;;5069084;28;20618;-66
2023/05/25 14:21:25;;;;;;;11.23;10.40;;;;;;;;;;5072201;28;20636;-66
2023/05/25 14:23:53;;;;;;;11.10;10.20;;;;;;;;;;5070225;28;20653;-66
2023/05/25 14:26:22;;;;;;;10.53;9.93;;;;;;;;;;5070665;28;20651;-66
2023/05/25 14:28:51;;;;;;;10.80;9.77;;;;;;;;;;5050270;28;21042;-66
2023/05/25 14:31:20;;;;;;;11.10;10.10;;;;;;;;;;5053375;28;21191;-66
2023/05/25 14:33:48;;;;;;;11.63;10.73;;;;;;;;;;5064376;28;21181;-67
2023/05/25 14:36:16;;;;;;;10.97;10.00;;;;;;;;;;5051209;28;20663;-67
2023/05/25 14:38:44;;;;;;;11.27;10.10;;;;;;;;;;5065952;28;20622;-67
2023/05/25 14:41:12;;;;;;;10.93;10.20;;;;;;;;;;5059122;28;20636;-66
2023/05/25 14:43:40;;;;;;;10.90;10.00;;;;;;;;;;5070140;28;20622;-66